createdAt,value
2023-01-17T00:02:26.298Z,97287.56
2023-01-17T00:05:11.278Z,97276.25
2023-01-17T00:07:55.960Z,97279.63
2023-01-17T00:10:25.664Z,97275.50
2023-01-17T00:12:57.747Z,97275.50
2023-01-17T00:15:25.013Z,97271.88
2023-01-17T00:17:52.578Z,97279.84
2023-01-17T00:20:46.297Z,97281.16
2023-01-17T00:23:42.579Z,97281.69
2023-01-17T00:26:16.687Z,97264.78
2023-01-17T00:28:44.359Z,97273.19
2023-01-17T00:31:13.012Z,97276.78
2023-01-17T00:33:39.752Z,97279.09
2023-01-17T00:36:06.637Z,97280.63
2023-01-17T00:38:36.133Z,97277.78
2023-01-17T00:41:05.089Z,97291.94
2023-01-17T00:43:50.085Z,97283.00
2023-01-17T00:46:36.037Z,97275.72
2023-01-17T00:49:21.264Z,97289.88
2023-01-17T00:52:06.112Z,97279.84
2023-01-17T00:54:50.896Z,97271.13
2023-01-17T00:57:35.661Z,97279.09
2023-01-17T01:00:20.531Z,97285.50
2023-01-17T01:03:05.281Z,97286.03
2023-01-17T01:05:50.578Z,97284.75
2023-01-17T01:08:44.763Z,97277.53
2023-01-17T01:11:33.122Z,97276.03
2023-01-17T01:14:19.382Z,97283.00
2023-01-17T01:17:04.866Z,97279.09
2023-01-17T01:19:49.866Z,97279.63
2023-01-17T01:22:34.700Z,97273.75
2023-01-17T01:25:20.003Z,97273.97
2023-01-17T01:28:05.258Z,97272.97
2023-01-17T01:30:50.659Z,97271.22
2023-01-17T01:33:19.944Z,97286.03
2023-01-17T01:35:49.248Z,97283.22
2023-01-17T01:38:16.736Z,97277.13
2023-01-17T01:40:45.661Z,97280.38
2023-01-17T01:43:14.249Z,97272.41
2023-01-17T01:45:44.573Z,97276.25
2023-01-17T01:48:24.836Z,97280.69
2023-01-17T01:50:51.655Z,97273.97
2023-01-17T01:53:20.152Z,97281.69
2023-01-17T01:55:49.416Z,97279.63
2023-01-17T01:58:24.657Z,97284.53
2023-01-17T02:00:51.421Z,97281.69
2023-01-17T02:03:23.368Z,97275.78
2023-01-17T02:06:28.958Z,97284.28
2023-01-17T02:08:58.776Z,97298.44
2023-01-17T02:11:25.468Z,97289.41
2023-01-17T02:13:51.906Z,97285.59
2023-01-17T02:16:21.222Z,97287.38
2023-01-17T02:19:05.555Z,97280.16
2023-01-17T02:21:34.567Z,97283.09
2023-01-17T02:24:07.181Z,97279.94
2023-01-17T02:27:01.201Z,97282.53
2023-01-17T02:30:05.145Z,97281.25
2023-01-17T02:32:59.927Z,97273.28
2023-01-17T02:35:47.248Z,97281.25
2023-01-17T02:38:25.258Z,97279.16
2023-01-17T02:41:07.644Z,97272.06
2023-01-17T02:43:35.997Z,97277.13
2023-01-17T02:46:02.678Z,97268.16
2023-01-17T02:48:32.293Z,97280.69
2023-01-17T02:51:10.728Z,97282.25
2023-01-17T02:54:21.712Z,97285.59
2023-01-17T02:57:05.376Z,97288.44
2023-01-17T02:59:50.136Z,97278.72
2023-01-17T03:02:21.729Z,97285.59
2023-01-17T03:05:06.512Z,97291.03
2023-01-17T03:07:33.955Z,97285.38
2023-01-17T03:10:04.877Z,97284.06
2023-01-17T03:12:35.477Z,97292.03
2023-01-17T03:15:02.021Z,97285.59
2023-01-17T03:17:32.513Z,97284.81
2023-01-17T03:19:59.103Z,97290.19
2023-01-17T03:22:25.548Z,97285.81
2023-01-17T03:24:52.037Z,97280.28
2023-01-17T03:27:18.437Z,97290.19
2023-01-17T03:29:44.875Z,97290.19
2023-01-17T03:32:11.406Z,97290.94
2023-01-17T03:34:37.808Z,97291.72
2023-01-17T03:37:04.219Z,97290.19
2023-01-17T03:39:30.665Z,97284.53
2023-01-17T03:41:57.120Z,97292.50
2023-01-17T03:44:23.588Z,97284.81
2023-01-17T03:46:50.016Z,97298.16
2023-01-17T03:49:16.765Z,97296.06
2023-01-17T03:51:43.305Z,97297.38
2023-01-17T03:54:09.713Z,97296.06
2023-01-17T03:56:36.274Z,97294.88
2023-01-17T03:59:02.776Z,97316.97
2023-01-17T04:01:29.318Z,97321.56
2023-01-17T04:03:55.745Z,97329.84
2023-01-17T04:06:22.217Z,97337.03
2023-01-17T04:08:48.721Z,97325.69
2023-01-17T04:11:15.121Z,97341.94
2023-01-17T04:13:41.524Z,97347.59
2023-01-17T04:16:13.166Z,97339.19
2023-01-17T04:18:39.753Z,97346.84
2023-01-17T04:21:07.648Z,97352.03
2023-01-17T04:23:35.853Z,97353.81
2023-01-17T04:26:03.542Z,97363.59
2023-01-17T04:28:31.673Z,97357.94
2023-01-17T04:30:59.645Z,97359.25
2023-01-17T04:33:26.340Z,97365.66
2023-01-17T04:35:53.479Z,97362.06
2023-01-17T04:38:20.162Z,97356.41
2023-01-17T04:40:46.674Z,97359.25
2023-01-17T04:43:13.054Z,97362.06
2023-01-17T04:45:39.678Z,97365.44
2023-01-17T04:48:06.533Z,97365.44
2023-01-17T04:50:34.706Z,97369.03
2023-01-17T04:53:01.152Z,97372.41
2023-01-17T04:55:27.560Z,97374.47
2023-01-17T04:57:54.538Z,97370.09
2023-01-17T05:00:24.082Z,97370.09
2023-01-17T05:02:52.009Z,97359.84
2023-01-17T05:05:18.676Z,97376.84
2023-01-17T05:07:52.997Z,97382.50
2023-01-17T05:10:19.389Z,97377.63
2023-01-17T05:12:56.320Z,97384.06
2023-01-17T05:15:23.313Z,97379.16
2023-01-17T05:17:51.824Z,97387.97
2023-01-17T05:20:19.416Z,97385.88
2023-01-17T05:22:47.347Z,97385.34
2023-01-17T05:25:13.838Z,97393.84
2023-01-17T05:27:40.275Z,97399.50
2023-01-17T05:30:07.137Z,97391.53
2023-01-17T05:32:33.592Z,97400.56
2023-01-17T05:35:00.050Z,97394.91
2023-01-17T05:37:26.489Z,97403.66
2023-01-17T05:39:52.902Z,97407.31
2023-01-17T05:42:19.333Z,97406.78
2023-01-17T05:44:45.874Z,97420.66
2023-01-17T05:47:12.290Z,97418.56
2023-01-17T05:49:38.893Z,97421.94
2023-01-17T05:52:05.366Z,97421.72
2023-01-17T05:54:31.805Z,97413.81
2023-01-17T05:56:58.196Z,97436.09
2023-01-17T05:59:36.444Z,97433.25
2023-01-17T06:02:03.588Z,97438.72
2023-01-17T06:04:30.047Z,97448.72
2023-01-17T06:06:56.579Z,97439.00
2023-01-17T06:09:23.097Z,97462.13
2023-01-17T06:11:49.531Z,97461.19
2023-01-17T06:14:15.978Z,97463.50
2023-01-17T06:16:42.492Z,97472.44
2023-01-17T06:19:09.431Z,97479.41
2023-01-17T06:21:35.862Z,97484.38
2023-01-17T06:24:04.102Z,97492.88
2023-01-17T06:26:30.765Z,97523.19
2023-01-17T06:28:57.199Z,97518.84
2023-01-17T06:31:23.726Z,97517.06
2023-01-17T06:33:50.161Z,97532.75
2023-01-17T06:36:16.593Z,97537.94
2023-01-17T06:38:42.985Z,97544.59
2023-01-17T06:41:09.722Z,97542.31
2023-01-17T06:43:36.195Z,97557.00
2023-01-17T06:46:02.642Z,97563.44
2023-01-17T06:48:29.157Z,97577.59
2023-01-17T06:50:57.660Z,97585.06
2023-01-17T06:53:24.170Z,97571.13
2023-01-17T06:55:50.953Z,97602.38
2023-01-17T06:58:17.349Z,97607.78
2023-01-17T07:00:44.518Z,97610.38
2023-01-17T07:03:25.183Z,97623.81
2023-01-17T07:05:52.952Z,97639.72
2023-01-17T07:08:19.916Z,97638.97
2023-01-17T07:10:47.509Z,97653.66
2023-01-17T07:13:14.396Z,97664.97
2023-01-17T07:15:41.081Z,97673.25
2023-01-17T07:18:07.529Z,97673.00
2023-01-17T07:20:34.051Z,97675.84
2023-01-17T07:23:00.428Z,97685.91
2023-01-17T07:25:27.849Z,97690.03
2023-01-17T07:27:57.370Z,97700.81
2023-01-17T07:30:24.752Z,97695.69
2023-01-17T07:32:53.352Z,97691.84
2023-01-17T07:35:20.379Z,97704.69
2023-01-17T07:37:48.637Z,97702.16
2023-01-17T07:40:17.497Z,97708.81
2023-01-17T07:42:44.689Z,97718.63
2023-01-17T07:45:12.825Z,97711.94
2023-01-17T07:47:39.390Z,97714.28
2023-01-17T07:50:07.395Z,97729.72
2023-01-17T07:52:33.820Z,97730.72
2023-01-17T07:55:00.288Z,97736.66
2023-01-17T07:57:27.547Z,97752.34
2023-01-17T07:59:54.002Z,97757.75
2023-01-17T08:02:22.963Z,97759.03
2023-01-17T08:04:49.668Z,97771.63
2023-01-17T08:07:16.744Z,97763.44
2023-01-17T08:09:44.023Z,97767.53
2023-01-17T08:12:10.509Z,97779.88
2023-01-17T08:14:36.943Z,97783.75
2023-01-17T08:17:07.882Z,97791.72
2023-01-17T08:19:34.345Z,97788.91
2023-01-17T08:22:00.816Z,97789.66
2023-01-17T08:24:27.266Z,97785.53
2023-01-17T08:26:55.515Z,97787.59
2023-01-17T08:29:22.815Z,97795.31
2023-01-17T08:31:49.618Z,97798.13
2023-01-17T08:34:16.479Z,97791.72
2023-01-17T08:36:42.937Z,97805.59
2023-01-17T08:39:09.819Z,97801.53
2023-01-17T08:41:36.314Z,97816.94
2023-01-17T08:44:03.179Z,97822.88
2023-01-17T08:46:32.073Z,97834.44
2023-01-17T08:48:59.979Z,97839.84
2023-01-17T08:51:27.730Z,97827.78
2023-01-17T08:53:55.578Z,97857.84
2023-01-17T08:56:23.936Z,97856.06
2023-01-17T08:58:50.333Z,97858.38
2023-01-17T09:01:16.849Z,97866.09
2023-01-17T09:03:43.659Z,97877.41
2023-01-17T09:06:13.340Z,97870.97
2023-01-17T09:08:40.595Z,97875.09
2023-01-17T09:11:09.491Z,97875.09
2023-01-17T09:13:36.445Z,97882.56
2023-01-17T09:16:03.237Z,97881.28
2023-01-17T09:18:31.179Z,97890.53
2023-01-17T09:20:59.318Z,97892.59
2023-01-17T09:23:27.762Z,97893.88
2023-01-17T09:25:55.543Z,97896.19
2023-01-17T09:28:22.653Z,97900.31
2023-01-17T09:30:49.478Z,97907.50
2023-01-17T09:33:16.230Z,97902.13
2023-01-17T09:35:42.778Z,97895.69
2023-01-17T09:38:09.370Z,97910.34
2023-01-17T09:40:38.580Z,97913.69
2023-01-17T09:43:11.953Z,97923.47
2023-01-17T09:45:38.785Z,97920.63
2023-01-17T09:48:14.319Z,97919.88
2023-01-17T09:50:50.713Z,97931.19
2023-01-17T09:53:20.804Z,97940.19
2023-01-17T09:55:56.050Z,97942.25
2023-01-17T09:59:03.552Z,97958.97
2023-01-17T10:01:35.764Z,97966.16
2023-01-17T10:04:38.274Z,97956.94
2023-01-17T10:07:19.498Z,97978.78
2023-01-17T10:10:11.264Z,97961.56
2023-01-17T10:13:28.499Z,97976.22
2023-01-17T10:16:28.474Z,97979.56
2023-01-17T10:19:20.538Z,97979.03
2023-01-17T10:22:18.575Z,97971.59
2023-01-17T10:25:09.116Z,97983.69
2023-01-17T10:27:40.844Z,97971.59
2023-01-17T10:30:18.114Z,97973.91
2023-01-17T10:32:48.931Z,97982.38
2023-01-17T10:35:20.965Z,97983.69
2023-01-17T10:37:49.907Z,97991.16
2023-01-17T10:40:23.086Z,97989.59
2023-01-17T10:43:00.985Z,97986.53
2023-01-17T10:45:28.967Z,97985.72
2023-01-17T10:48:15.360Z,97991.91
2023-01-17T10:51:00.919Z,98004.00
2023-01-17T10:53:44.111Z,98004.25
2023-01-17T10:56:14.766Z,97999.13
2023-01-17T10:58:41.261Z,97993.47
2023-01-17T11:01:18.137Z,98007.59
2023-01-17T11:03:50.582Z,98005.53
2023-01-17T11:06:18.893Z,98007.59
2023-01-17T11:08:53.612Z,98011.72
2023-01-17T11:11:23.443Z,98010.44
2023-01-17T11:13:52.151Z,98010.69
2023-01-17T11:16:21.705Z,98004.78
2023-01-17T11:19:05.117Z,98008.63
2023-01-17T11:21:32.712Z,98000.66
2023-01-17T11:24:10.178Z,98004.25
2023-01-17T11:26:38.405Z,98017.63
2023-01-17T11:29:16.094Z,98017.63
2023-01-17T11:31:43.553Z,98017.63
2023-01-17T11:34:24.950Z,98011.72
2023-01-17T11:37:18.211Z,98018.66
2023-01-17T11:39:48.041Z,98014.53
2023-01-17T11:42:35.171Z,98016.09
2023-01-17T11:45:26.970Z,98026.13
2023-01-17T11:48:08.717Z,98035.38
2023-01-17T11:50:38.649Z,98027.94
2023-01-17T11:53:25.371Z,98031.28
2023-01-17T11:56:18.796Z,98029.19
2023-01-17T11:58:47.130Z,98034.34
2023-01-17T12:01:50.794Z,98033.59
2023-01-17T12:04:24.161Z,98032.78
2023-01-17T12:07:17.212Z,98040.00
2023-01-17T12:10:15.418Z,98044.13
2023-01-17T12:13:07.614Z,98048.75
2023-01-17T12:15:47.464Z,98053.09
2023-01-17T12:18:22.069Z,98056.19
2023-01-17T12:21:01.652Z,98053.09
2023-01-17T12:24:13.874Z,98054.66
2023-01-17T12:26:44.062Z,98060.81
2023-01-17T12:29:34.514Z,98055.41
2023-01-17T12:32:38.262Z,98043.59
2023-01-17T12:35:18.656Z,98058.72
2023-01-17T12:38:03.762Z,98061.56
2023-01-17T12:40:46.689Z,98062.13
2023-01-17T12:43:39.504Z,98061.59
2023-01-17T12:46:21.189Z,98072.66
2023-01-17T12:48:52.040Z,98056.19
2023-01-17T12:51:27.626Z,98061.31
2023-01-17T12:54:09.390Z,98090.16
2023-01-17T12:56:42.657Z,98083.19
2023-01-17T12:59:20.114Z,98081.66
2023-01-17T13:01:57.681Z,98076.75
2023-01-17T13:04:29.488Z,98073.41
2023-01-17T13:06:58.946Z,98081.66
2023-01-17T13:09:33.066Z,98078.81
2023-01-17T13:12:19.965Z,98078.56
2023-01-17T13:14:47.173Z,98084.47
2023-01-17T13:17:22.616Z,98082.41
2023-01-17T13:20:03.010Z,98085.53
2023-01-17T13:22:31.988Z,98099.91
2023-01-17T13:25:15.021Z,98102.00
2023-01-17T13:28:23.391Z,98107.38
2023-01-17T13:31:18.517Z,98107.88
2023-01-17T13:34:22.645Z,98105.56
2023-01-17T13:37:15.869Z,98111.78
2023-01-17T13:40:03.276Z,98113.31
2023-01-17T13:42:48.180Z,98117.44
2023-01-17T13:45:20.930Z,98127.97
2023-01-17T13:47:47.818Z,98139.28
2023-01-17T13:50:36.159Z,98139.03
2023-01-17T13:53:33.709Z,98137.97
2023-01-17T13:56:18.467Z,98142.13
2023-01-17T13:58:49.939Z,98146.47
2023-01-17T14:01:22.715Z,98146.47
2023-01-17T14:03:49.219Z,98150.59
2023-01-17T14:06:35.445Z,98147.25
2023-01-17T14:09:07.819Z,98156.25
2023-01-17T14:11:52.224Z,98161.66
2023-01-17T14:14:40.364Z,98162.94
2023-01-17T14:17:16.218Z,98162.94
2023-01-17T14:19:48.106Z,98167.31
2023-01-17T14:22:20.239Z,98171.44
2023-01-17T14:25:19.962Z,98175.53
2023-01-17T14:27:49.987Z,98178.38
2023-01-17T14:30:25.626Z,98181.22
2023-01-17T14:33:01.285Z,98187.38
2023-01-17T14:35:49.787Z,98189.44
2023-01-17T14:38:21.677Z,98182.22
2023-01-17T14:41:04.835Z,98191.22
2023-01-17T14:43:35.240Z,98188.16
2023-01-17T14:46:05.354Z,98188.66
2023-01-17T14:48:31.777Z,98183.78
2023-01-17T14:51:01.788Z,98194.06
2023-01-17T14:53:30.562Z,98204.38
2023-01-17T14:56:02.498Z,98201.53
2023-01-17T14:58:34.880Z,98202.06
2023-01-17T15:01:07.061Z,98203.84
2023-01-17T15:03:44.113Z,98201.00
2023-01-17T15:06:16.255Z,98213.88
2023-01-17T15:08:42.925Z,98202.28
2023-01-17T15:11:16.631Z,98210.78
2023-01-17T15:13:46.920Z,98202.28
2023-01-17T15:16:31.015Z,98203.34
2023-01-17T15:18:57.599Z,98203.06
2023-01-17T15:21:29.562Z,98202.53
2023-01-17T15:24:01.285Z,98202.28
2023-01-17T15:26:33.265Z,98213.88
2023-01-17T15:29:11.357Z,98212.06
2023-01-17T15:31:44.628Z,98211.00
2023-01-17T15:34:27.018Z,98227.47
2023-01-17T15:36:57.827Z,98218.19
2023-01-17T15:39:30.544Z,98235.72
2023-01-17T15:42:04.639Z,98229.78
2023-01-17T15:44:47.483Z,98239.31
2023-01-17T15:47:37.499Z,98238.75
2023-01-17T15:50:29.896Z,98242.88
2023-01-17T15:53:00.351Z,98243.13
2023-01-17T15:55:32.979Z,98250.31
2023-01-17T15:57:59.952Z,98250.59
2023-01-17T16:00:32.620Z,98259.31
2023-01-17T16:02:59.727Z,98244.38
2023-01-17T16:05:31.174Z,98256.75
2023-01-17T16:08:22.886Z,98253.13
2023-01-17T16:10:54.699Z,98250.28
2023-01-17T16:13:21.793Z,98253.13
2023-01-17T16:15:48.645Z,98267.75
2023-01-17T16:18:19.227Z,98258.75
2023-01-17T16:20:49.730Z,98254.66
2023-01-17T16:23:17.138Z,98258.22
2023-01-17T16:25:44.435Z,98257.69
2023-01-17T16:28:10.847Z,98266.44
2023-01-17T16:30:37.718Z,98265.66
2023-01-17T16:33:04.479Z,98263.63
2023-01-17T16:35:33.873Z,98271.31
2023-01-17T16:38:06.072Z,98284.44
2023-01-17T16:40:38.714Z,98280.56
2023-01-17T16:43:05.145Z,98282.56
2023-01-17T16:45:38.873Z,98284.88
2023-01-17T16:48:05.636Z,98293.13
2023-01-17T16:50:32.299Z,98293.63
2023-01-17T16:52:58.729Z,98294.13
2023-01-17T16:55:25.782Z,98297.44
2023-01-17T16:57:56.003Z,98300.78
2023-01-17T17:00:22.815Z,98309.00
2023-01-17T17:02:50.627Z,98304.84
2023-01-17T17:05:17.675Z,98306.91
2023-01-17T17:07:45.485Z,98317.72
2023-01-17T17:10:14.385Z,98311.78
2023-01-17T17:12:41.782Z,98309.47
2023-01-17T17:15:10.111Z,98317.16
2023-01-17T17:17:37.354Z,98322.56
2023-01-17T17:20:05.306Z,98318.94
2023-01-17T17:22:32.465Z,98320.75
2023-01-17T17:24:59.172Z,98332.03
2023-01-17T17:27:27.616Z,98333.31
2023-01-17T17:29:54.007Z,98328.63
2023-01-17T17:32:21.235Z,98332.78
2023-01-17T17:34:48.046Z,98348.19
2023-01-17T17:37:17.403Z,98352.28
2023-01-17T17:39:45.149Z,98354.06
2023-01-17T17:42:12.226Z,98344.81
2023-01-17T17:44:38.612Z,98349.16
2023-01-17T17:47:05.037Z,98346.59
2023-01-17T17:49:31.507Z,98357.63
2023-01-17T17:52:05.807Z,98367.09
2023-01-17T17:54:33.085Z,98369.94
2023-01-17T17:56:59.702Z,98373.25
2023-01-17T17:59:26.521Z,98369.88
2023-01-17T18:01:53.190Z,98372.19
2023-01-17T18:04:21.512Z,98381.16
2023-01-17T18:06:47.944Z,98375.25
2023-01-17T18:09:14.479Z,98379.34
2023-01-17T18:11:42.124Z,98384.22
2023-01-17T18:14:12.469Z,98388.31
2023-01-17T18:16:43.871Z,98379.56
2023-01-17T18:19:17.016Z,98384.97
2023-01-17T18:21:43.978Z,98387.28
2023-01-17T18:24:13.541Z,98380.56
2023-01-17T18:26:58.284Z,98389.78
2023-01-17T18:29:27.027Z,98384.41
2023-01-17T18:31:54.651Z,98384.91
2023-01-17T18:34:24.564Z,98391.03
2023-01-17T18:36:51.733Z,98383.81
2023-01-17T18:39:20.936Z,98389.22
2023-01-17T18:41:47.428Z,98387.13
2023-01-17T18:44:14.004Z,98398.19
2023-01-17T18:46:42.035Z,98398.97
2023-01-17T18:49:12.699Z,98402.31
2023-01-17T18:51:39.195Z,98405.63
2023-01-17T18:54:07.379Z,98408.16
2023-01-17T18:56:35.223Z,98410.94
2023-01-17T18:59:02.860Z,98409.44
2023-01-17T19:01:33.013Z,98415.59
2023-01-17T19:04:02.271Z,98414.81
2023-01-17T19:06:31.361Z,98411.69
2023-01-17T19:08:58.553Z,98420.66
2023-01-17T19:11:26.824Z,98419.13
2023-01-17T19:13:53.787Z,98424.47
2023-01-17T19:16:27.843Z,98437.81
2023-01-17T19:18:56.394Z,98435.50
2023-01-17T19:21:26.098Z,98420.06
2023-01-17T19:23:54.009Z,98428.81
2023-01-17T19:26:22.730Z,98407.88
2023-01-17T19:28:50.210Z,98422.34
2023-01-17T19:31:20.371Z,98421.03
2023-01-17T19:33:48.330Z,98429.50
2023-01-17T19:36:21.044Z,98428.97
2023-01-17T19:39:03.113Z,98432.06
2023-01-17T19:41:31.198Z,98429.72
2023-01-17T19:44:00.407Z,98425.84
2023-01-17T19:46:27.973Z,98416.34
2023-01-17T19:48:56.141Z,98429.97
2023-01-17T19:51:23.454Z,98435.59
2023-01-17T19:53:50.175Z,98438.16
2023-01-17T19:56:19.134Z,98444.78
2023-01-17T19:58:46.575Z,98437.59
2023-01-17T20:01:22.260Z,98441.13
2023-01-17T20:03:50.167Z,98455.78
2023-01-17T20:06:22.413Z,98451.41
2023-01-17T20:08:49.027Z,98447.03
2023-01-17T20:11:19.082Z,98453.16
2023-01-17T20:13:46.649Z,98450.84
2023-01-17T20:16:15.031Z,98449.22
2023-01-17T20:18:41.842Z,98452.63
2023-01-17T20:21:26.032Z,98455.16
2023-01-17T20:23:53.233Z,98456.63
2023-01-17T20:26:25.360Z,98460.72
2023-01-17T20:28:52.106Z,98458.91
2023-01-17T20:31:23.797Z,98461.72
2023-01-17T20:33:54.034Z,98461.22
2023-01-17T20:36:22.834Z,98466.88
2023-01-17T20:38:49.698Z,98467.38
2023-01-17T20:41:22.056Z,98466.59
2023-01-17T20:43:51.055Z,98467.09
2023-01-17T20:46:19.171Z,98471.94
2023-01-17T20:48:48.161Z,98469.91
2023-01-17T20:51:15.407Z,98462.63
2023-01-17T20:53:43.416Z,98469.59
2023-01-17T20:56:14.312Z,98466.72
2023-01-17T20:58:41.802Z,98469.81
2023-01-17T21:01:10.464Z,98474.69
2023-01-17T21:03:38.782Z,98474.13
2023-01-17T21:06:07.649Z,98480.56
2023-01-17T21:08:36.518Z,98482.84
2023-01-17T21:11:03.754Z,98486.19
2023-01-17T21:13:31.535Z,98483.88
2023-01-17T21:15:58.910Z,98483.88
2023-01-17T21:18:26.932Z,98488.44
2023-01-17T21:20:53.412Z,98476.00
2023-01-17T21:23:20.368Z,98488.16
2023-01-17T21:25:55.407Z,98494.28
2023-01-17T21:28:26.846Z,98504.28
2023-01-17T21:30:54.147Z,98498.84
2023-01-17T21:33:21.995Z,98500.91
2023-01-17T21:35:48.716Z,98507.53
2023-01-17T21:38:15.833Z,98517.81
2023-01-17T21:40:43.707Z,98512.88
2023-01-17T21:43:10.958Z,98527.00
2023-01-17T21:45:38.530Z,98531.34
2023-01-17T21:48:06.655Z,98529.81
2023-01-17T21:50:34.064Z,98518.91
2023-01-17T21:53:00.826Z,98527.88
2023-01-17T21:55:45.974Z,98539.25
2023-01-17T21:58:35.914Z,98537.88
2023-01-17T22:01:15.960Z,98543.03
2023-01-17T22:03:48.345Z,98536.59
2023-01-17T22:06:14.782Z,98548.41
2023-01-17T22:08:41.169Z,98546.84
2023-01-17T22:11:13.132Z,98533.44
2023-01-17T22:13:41.841Z,98544.50
2023-01-17T22:16:12.029Z,98533.72
2023-01-17T22:18:39.862Z,98527.78
2023-01-17T22:21:28.271Z,98545.97
2023-01-17T22:23:56.527Z,98536.25
2023-01-17T22:26:29.125Z,98537.22
2023-01-17T22:28:56.016Z,98532.84
2023-01-17T22:31:25.061Z,98536.44
2023-01-17T22:33:54.411Z,98536.63
2023-01-17T22:36:20.848Z,98531.00
2023-01-17T22:38:47.511Z,98540.75
2023-01-17T22:41:16.662Z,98549.38
2023-01-17T22:43:48.785Z,98556.09
2023-01-17T22:46:18.736Z,98559.69
2023-01-17T22:48:45.655Z,98547.84
2023-01-17T22:51:15.480Z,98548.59
2023-01-17T22:53:44.088Z,98545.03
2023-01-17T22:56:14.540Z,98546.75
2023-01-17T22:58:44.495Z,98546.75
2023-01-17T23:01:15.932Z,98556.47
2023-01-17T23:03:42.478Z,98541.53
2023-01-17T23:06:18.985Z,98557.47
2023-01-17T23:08:48.608Z,98556.69
2023-01-17T23:11:46.065Z,98552.22
2023-01-17T23:14:21.886Z,98565.81
2023-01-17T23:17:09.615Z,98565.81
2023-01-17T23:19:38.462Z,98577.56
2023-01-17T23:22:20.488Z,98586.03
2023-01-17T23:24:55.214Z,98597.31
2023-01-17T23:27:47.487Z,98590.09
2023-01-17T23:30:17.558Z,98595.44
2023-01-17T23:32:47.237Z,98591.09
2023-01-17T23:35:14.798Z,98593.59
2023-01-17T23:37:59.793Z,98590.50
2023-01-17T23:40:26.249Z,98603.34
2023-01-17T23:43:11.131Z,98598.06
2023-01-17T23:45:38.868Z,98608.66
2023-01-17T23:48:09.824Z,98609.94
2023-01-17T23:50:38.277Z,98617.31
2023-01-17T23:53:08.102Z,98620.63
2023-01-17T23:55:40.806Z,98620.63
2023-01-17T23:58:10.072Z,98619.06
